Time;durP1;ratioP1;P1;durP2;ratioP2;P2;SDS_P1;SDS_P2;PMS_P1;PMS_P2;Temp;Humidity;BMP_temperature;BMP_pressure;BME280_temperature;BME280_humidity;BME280_pressure;Samples;Min_cycle;Max_cycle;Signal;HPM_P1;HPM_P2
2021/01/13 00:01:16;;;;;;;11.75;1.52;;;;;;;4.75;72.22;101649.59;4973016;28;20138;-57
2021/01/13 00:03:43;;;;;;;15.02;2.08;;;;;;;4.74;72.39;101642.38;4972149;28;20058;-55
2021/01/13 00:06:15;;;;;;;9.35;1.13;;;;;;;4.73;72.14;101651.75;4972760;28;20078;-58
2021/01/13 00:08:42;;;;;;;17.10;1.60;;;;;;;4.70;72.33;101642.00;4969655;28;20602;-56
2021/01/13 00:11:09;;;;;;;13.48;1.50;;;;;;;4.68;72.46;101632.28;4972594;28;20400;-58
2021/01/13 00:13:40;;;;;;;12.60;1.45;;;;;;;4.71;72.26;101629.03;4972439;28;20113;-59
2021/01/13 00:16:07;;;;;;;11.40;1.35;;;;;;;4.68;72.04;101621.22;4972971;28;20045;-56
2021/01/13 00:18:35;;;;;;;10.48;1.08;;;;;;;4.69;72.37;101626.50;4971946;28;20046;-55
2021/01/13 00:21:03;;;;;;;13.38;1.50;;;;;;;4.68;72.42;101624.00;4972894;28;20102;-60
2021/01/13 00:23:30;;;;;;;10.38;1.63;;;;;;;4.68;72.54;101615.69;4971029;28;20062;-59
2021/01/13 00:25:57;;;;;;;11.60;1.90;;;;;;;4.67;72.42;101617.63;4972582;28;20035;-56
2021/01/13 00:28:25;;;;;;;8.88;0.98;;;;;;;4.67;72.10;101623.16;4972575;28;20463;-60
2021/01/13 00:30:52;;;;;;;13.60;1.55;;;;;;;4.70;72.23;101619.91;4972635;28;20134;-59
2021/01/13 00:33:19;;;;;;;10.48;1.65;;;;;;;4.74;72.50;101609.22;4972178;28;20066;-60
2021/01/13 00:35:46;;;;;;;15.95;1.70;;;;;;;4.79;72.31;101612.09;4972457;28;20057;-58
2021/01/13 00:38:12;;;;;;;10.48;1.30;;;;;;;4.85;71.55;101613.88;4971524;28;20134;-57
2021/01/13 00:40:39;;;;;;;8.40;1.33;;;;;;;4.91;71.24;101614.81;4972335;28;20129;-53
2021/01/13 00:43:06;;;;;;;10.98;1.45;;;;;;;4.91;71.43;101614.81;4972310;28;20043;-57
2021/01/13 00:45:33;;;;;;;9.27;1.13;;;;;;;4.89;71.76;101605.94;4972001;28;20460;-58
2021/01/13 00:48:00;;;;;;;10.20;1.10;;;;;;;4.84;71.99;101615.78;4972440;28;20511;-57
2021/01/13 00:50:27;;;;;;;11.82;1.17;;;;;;;4.79;71.99;101623.16;4972212;28;20566;-55
2021/01/13 00:52:54;;;;;;;7.95;1.45;;;;;;;4.73;72.36;101608.38;4971674;28;20121;-55
2021/01/13 00:55:21;;;;;;;9.55;1.40;;;;;;;4.72;72.98;101603.06;4971872;28;20550;-58
2021/01/13 00:57:50;;;;;;;10.82;1.50;;;;;;;4.70;73.09;101603.31;4972520;28;20138;-58
2021/01/13 01:00:18;;;;;;;16.42;1.60;;;;;;;4.72;73.22;101611.38;4970670;28;20077;-55
2021/01/13 01:02:47;;;;;;;14.65;2.03;;;;;;;4.71;72.95;101609.69;4972527;28;20051;-54
2021/01/13 01:05:15;;;;;;;13.35;1.55;;;;;;;4.72;72.46;101614.13;4971881;28;20121;-52
2021/01/13 01:07:43;;;;;;;12.73;1.65;;;;;;;4.72;72.41;101601.16;4971596;28;20141;-56
2021/01/13 01:10:16;;;;;;;12.05;1.55;;;;;;;4.72;72.50;101601.16;4971950;28;20057;-54
2021/01/13 01:12:44;;;;;;;13.77;1.50;;;;;;;4.73;72.28;101613.06;4972525;28;20054;-56
2021/01/13 01:15:12;;;;;;;12.05;1.60;;;;;;;4.75;72.13;101611.72;4971349;28;20043;-52
2021/01/13 01:17:39;;;;;;;10.88;1.95;;;;;;;4.75;72.52;101613.66;4976068;28;20046;-56
2021/01/13 01:20:07;;;;;;;12.65;1.63;;;;;;;4.76;72.51;101601.50;4975953;28;20126;-59
2021/01/13 01:22:34;;;;;;;14.63;1.67;;;;;;;4.76;72.32;101605.13;4975987;28;20070;-55
2021/01/13 01:25:01;;;;;;;17.42;1.55;;;;;;;4.76;72.47;101612.56;4975521;28;20173;-55
2021/01/13 01:27:28;;;;;;;14.27;2.13;;;;;;;4.75;72.55;101608.97;4975527;28;20085;-58
2021/01/13 01:29:55;;;;;;;15.05;1.55;;;;;;;4.73;72.48;101613.88;4975536;28;20109;-53
2021/01/13 01:32:28;;;;;;;11.00;1.55;;;;;;;4.74;72.70;101611.97;4976232;28;20093;-59
2021/01/13 01:34:54;;;;;;;;;;;;;;;4.70;72.85;101617.13;4973037;28;20055;-51
2021/01/13 01:37:22;;;;;;;11.23;1.35;;;;;;;4.71;73.14;101615.22;4975652;28;19972;-57
2021/01/13 01:39:50;;;;;;;11.05;1.52;;;;;;;4.77;73.64;101609.56;4974361;28;20374;-57
2021/01/13 01:42:17;;;;;;;9.90;1.40;;;;;;;4.78;73.86;101615.94;4974001;28;20078;-55
2021/01/13 01:44:44;;;;;;;9.35;1.33;;;;;;;4.73;74.32;101618.59;4975633;28;20050;-54
2021/01/13 01:47:11;;;;;;;8.20;1.60;;;;;;;4.69;74.77;101618.22;4975418;28;20058;-58
2021/01/13 01:49:42;;;;;;;12.07;1.70;;;;;;;4.61;75.40;101621.34;4975248;28;20054;-58
2021/01/13 01:52:16;;;;;;;5.00;1.15;;;;;;;4.57;75.85;101625.69;4972425;28;20047;-61
2021/01/13 01:54:50;;;;;;;15.63;1.98;;;;;;;4.52;75.87;101624.72;4975269;28;20575;-61
2021/01/13 01:57:23;;;;;;;9.48;1.40;;;;;;;4.47;75.56;101623.50;4974690;28;20399;-62
2021/01/13 01:59:53;;;;;;;10.65;1.30;;;;;;;4.44;75.57;101617.63;4956256;29;20051;-63
2021/01/13 02:02:25;;;;;;;11.27;1.23;;;;;;;4.43;75.69;101614.00;4975024;28;20126;-63
2021/01/13 02:04:57;;;;;;;9.02;1.15;;;;;;;4.45;75.83;101620.16;4975550;28;20411;-62
2021/01/13 02:07:30;;;;;;;14.82;1.50;;;;;;;4.47;76.03;101620.75;4962630;28;20054;-62
2021/01/13 02:09:59;;;;;;;13.82;1.27;;;;;;;4.52;76.29;101621.97;4974340;28;20054;-60
2021/01/13 02:12:33;;;;;;;8.60;1.30;;;;;;;4.58;76.21;101616.31;4974894;28;20484;-61
2021/01/13 02:15:01;;;;;;;15.07;1.65;;;;;;;4.64;76.39;101608.97;4975481;28;20038;-60
2021/01/13 02:17:33;;;;;;;8.35;1.23;;;;;;;4.69;76.58;101612.69;4974230;28;20042;-58
2021/01/13 02:20:14;;;;;;;14.98;1.70;;;;;;;4.77;76.55;101625.31;4974913;28;20488;-56
2021/01/13 02:22:56;;;;;;;11.02;1.60;;;;;;;4.82;76.17;101619.88;4974572;28;20548;-60
2021/01/13 02:26:06;;;;;;;18.35;1.65;;;;;;;4.87;75.60;101625.53;4974282;28;20051;-59
2021/01/13 02:28:44;;;;;;;15.90;2.10;;;;;;;4.92;76.67;101649.69;4973942;28;20101;-56
2021/01/13 02:31:43;;;;;;;18.58;2.50;;;;;;;4.92;76.89;101636.72;4974245;28;20055;-56
2021/01/13 02:34:20;;;;;;;16.58;2.17;;;;;;;4.85;76.87;101633.22;4972734;28;20051;-57
2021/01/13 02:37:18;;;;;;;17.70;1.85;;;;;;;4.79;77.25;101639.75;4974560;28;20118;-53
2021/01/13 02:39:46;;;;;;;11.98;1.90;;;;;;;4.70;77.78;101638.41;4946587;28;20415;-54
2021/01/13 02:42:20;;;;;;;17.30;1.88;;;;;;;4.69;77.88;101640.34;4974443;28;20162;-56
2021/01/13 02:45:02;;;;;;;14.32;1.75;;;;;;;4.69;78.22;101631.19;4974169;28;20086;-55
2021/01/13 02:47:46;;;;;;;14.63;2.15;;;;;;;4.70;78.03;101638.41;4974208;28;20461;-56
2021/01/13 02:50:22;;;;;;;17.33;2.60;;;;;;;4.71;77.99;101638.19;4963429;28;20047;-55
2021/01/13 02:53:07;;;;;;;13.75;2.05;;;;;;;4.75;77.91;101630.25;4973647;28;20050;-57
2021/01/13 02:55:37;;;;;;;15.07;2.20;;;;;;;4.76;77.71;101618.94;4965895;28;20133;-59
2021/01/13 02:58:05;;;;;;;14.60;2.08;;;;;;;4.78;75.59;101621.47;4973800;28;20114;-58
2021/01/13 03:00:33;;;;;;;10.38;1.70;;;;;;;4.80;74.63;101619.28;4973640;28;20076;-57
2021/01/13 03:03:01;;;;;;;11.15;1.85;;;;;;;4.84;73.96;101626.00;4973917;28;20051;-53
2021/01/13 03:05:28;;;;;;;16.02;1.73;;;;;;;4.87;73.97;101619.16;4974099;28;20538;-58
2021/01/13 03:07:56;;;;;;;14.75;1.73;;;;;;;4.88;73.38;101637.44;4973245;28;20121;-53
2021/01/13 03:10:25;;;;;;;12.57;1.70;;;;;;;4.87;72.58;101625.53;4974485;28;20042;-57
2021/01/13 03:12:59;;;;;;;10.55;1.38;;;;;;;4.89;71.90;101634.44;4973064;28;20477;-54
2021/01/13 03:15:28;;;;;;;17.02;2.35;;;;;;;4.88;71.38;101635.50;4973997;28;20045;-53
2021/01/13 03:18:06;;;;;;;14.73;2.28;;;;;;;4.91;71.56;101626.72;4973727;28;20050;-50
2021/01/13 03:20:39;;;;;;;11.65;1.50;;;;;;;4.89;71.68;101625.28;4972157;28;20039;-56
2021/01/13 03:23:09;;;;;;;;;;;;;;;4.80;69.76;101631.19;4974035;28;20049;-57
2021/01/13 03:25:38;;;;;;;16.30;1.63;;;;;;;4.78;71.43;101638.06;4973752;28;19977;-57
2021/01/13 03:28:07;;;;;;;13.25;1.85;;;;;;;4.81;71.61;101640.31;4973014;28;20049;-59
2021/01/13 03:30:35;;;;;;;16.23;1.80;;;;;;;4.81;70.73;101641.16;4973398;28;20395;-60
2021/01/13 03:33:26;;;;;;;12.23;1.58;;;;;;;4.82;70.33;101642.84;4973672;28;20114;-51
2021/01/13 03:35:58;;;;;;;12.23;1.63;;;;;;;4.80;70.27;101652.44;4971724;28;20146;-59
2021/01/13 03:38:29;;;;;;;11.83;1.60;;;;;;;4.82;70.23;101655.81;4973664;28;20121;-55
2021/01/13 03:41:02;;;;;;;11.15;1.52;;;;;;;4.84;70.51;101639.84;4972623;28;20051;-55
2021/01/13 03:43:36;;;;;;;12.30;1.50;;;;;;;4.84;70.49;101643.44;4973543;28;20050;-56
2021/01/13 03:46:06;;;;;;;14.05;1.40;;;;;;;4.84;70.38;101642.59;4971017;28;20402;-53
2021/01/13 03:48:42;;;;;;;16.27;2.08;;;;;;;4.84;70.03;101635.16;4972696;28;20047;-59
2021/01/13 03:51:41;;;;;;;16.35;1.95;;;;;;;4.85;70.04;101638.75;4970520;28;20413;-55
2021/01/13 03:54:11;;;;;;;15.23;2.45;;;;;;;4.85;70.33;101622.16;4971667;28;20049;-55
2021/01/13 03:56:54;;;;;;;11.13;1.60;;;;;;;4.91;70.43;101626.72;4972861;28;20054;-53
2021/01/13 03:59:30;;;;;;;11.30;1.95;;;;;;;4.93;70.04;101624.56;4973111;28;20388;-56
2021/01/13 04:02:02;;;;;;;12.48;1.70;;;;;;;4.92;70.07;101622.03;4971742;28;20047;-55
2021/01/13 04:04:45;;;;;;;15.98;1.85;;;;;;;4.87;69.79;101617.22;4973061;28;20165;-60
2021/01/13 04:07:14;;;;;;;11.60;1.60;;;;;;;4.86;70.36;101626.59;4972930;28;20051;-59
2021/01/13 04:09:42;;;;;;;12.70;2.17;;;;;;;4.86;70.23;101615.56;4972444;28;20122;-53
2021/01/13 04:12:14;;;;;;;16.30;2.25;;;;;;;4.87;70.79;101614.47;4972815;28;20138;-57
2021/01/13 04:14:51;;;;;;;;;;;;;;;4.77;70.12;101626.16;4973244;28;20480;-55
2021/01/13 04:17:19;;;;;;;15.40;2.10;;;;;;;4.76;70.55;101615.34;4972125;28;19930;-55
2021/01/13 04:19:48;;;;;;;9.25;1.75;;;;;;;4.83;69.95;101611.34;4972795;28;20053;-58
2021/01/13 04:22:17;;;;;;;15.77;2.10;;;;;;;4.85;69.59;101608.34;4972627;28;20113;-52
2021/01/13 04:24:46;;;;;;;12.70;1.85;;;;;;;4.85;69.39;101605.56;4972331;28;20408;-55
2021/01/13 04:27:14;;;;;;;11.55;1.90;;;;;;;4.88;69.16;101599.56;4971730;28;20567;-55
2021/01/13 04:29:41;;;;;;;9.13;1.55;;;;;;;4.90;69.09;101604.84;4972361;28;20514;-52
2021/01/13 04:32:10;;;;;;;19.23;2.25;;;;;;;4.94;69.52;101606.88;4971861;28;20086;-56
2021/01/13 04:34:38;;;;;;;11.05;1.83;;;;;;;4.96;69.79;101595.59;4970666;28;20068;-59
2021/01/13 04:37:07;;;;;;;12.23;1.70;;;;;;;4.98;69.24;101604.47;4971859;28;20038;-51
2021/01/13 04:39:36;;;;;;;9.05;1.67;;;;;;;4.99;69.08;101595.94;4972568;28;20054;-53
2021/01/13 04:42:09;;;;;;;11.73;1.83;;;;;;;5.01;69.08;101593.75;4972091;28;20150;-52
2021/01/13 04:44:44;;;;;;;12.63;1.83;;;;;;;5.04;69.07;101592.41;4972068;28;20122;-56
2021/01/13 04:47:11;;;;;;;9.60;1.80;;;;;;;5.07;69.38;101586.41;4972299;28;20070;-59
2021/01/13 04:49:39;;;;;;;9.80;1.85;;;;;;;5.08;69.25;101588.94;4972496;28;20066;-54
2021/01/13 04:52:19;;;;;;;13.38;1.65;;;;;;;5.09;68.93;101587.84;4970954;28;20418;-55
2021/01/13 04:54:47;;;;;;;13.18;2.40;;;;;;;5.09;69.54;101587.84;4972395;28;20415;-56
2021/01/13 04:57:59;;;;;;;13.85;1.70;;;;;;;5.11;69.73;101587.59;4972017;28;20156;-59
2021/01/13 05:00:59;;;;;;;11.77;1.98;;;;;;;5.06;69.90;101580.03;4971845;28;20057;-54
2021/01/13 05:03:42;;;;;;;13.27;1.80;;;;;;;5.03;69.69;101591.56;4971742;28;20055;-57
2021/01/13 05:06:46;;;;;;;17.80;2.47;;;;;;;5.04;69.96;101582.19;4953190;28;20043;-54
2021/01/13 05:09:15;;;;;;;12.43;1.88;;;;;;;5.00;70.06;101586.53;4971985;28;20495;-55
2021/01/13 05:11:44;;;;;;;18.40;2.47;;;;;;;5.00;69.36;101581.00;4972285;28;20055;-54
2021/01/13 05:14:12;;;;;;;11.98;1.70;;;;;;;5.03;69.32;101574.97;4971422;28;20524;-57
2021/01/13 05:17:03;;;;;;;11.48;1.63;;;;;;;5.03;69.75;101583.28;4972033;28;20050;-54
2021/01/13 05:20:08;;;;;;;11.82;1.58;;;;;;;5.00;70.30;101566.31;4968462;28;20058;-51
2021/01/13 05:22:35;;;;;;;16.23;2.72;;;;;;;4.97;70.53;101578.75;4971827;28;20059;-57
2021/01/13 05:25:05;;;;;;;9.40;1.50;;;;;;;5.00;70.79;101575.47;4972137;28;20073;-56
2021/01/13 05:28:05;;;;;;;12.38;1.83;;;;;;;5.03;70.07;101579.66;4971349;28;20137;-57
2021/01/13 05:30:34;;;;;;;21.67;2.63;;;;;;;4.99;70.61;101579.34;4957019;28;20054;-54
2021/01/13 05:33:05;;;;;;;11.85;1.92;;;;;;;5.02;70.59;101583.53;4971774;28;20118;-55
2021/01/13 05:35:36;;;;;;;13.05;1.80;;;;;;;5.04;70.46;101592.41;4969248;28;20149;-57
2021/01/13 05:38:08;;;;;;;15.40;2.17;;;;;;;5.08;70.45;101585.31;4971733;28;20055;-53
2021/01/13 05:40:50;;;;;;;13.85;2.10;;;;;;;5.10;71.04;101588.69;4971295;28;20133;-58
2021/01/13 05:43:19;;;;;;;16.02;2.00;;;;;;;5.08;71.43;101591.69;4971775;28;20046;-54
2021/01/13 05:45:46;;;;;;;13.90;2.00;;;;;;;5.08;71.93;101591.69;4972184;28;20043;-54
2021/01/13 05:48:19;;;;;;;19.00;2.67;;;;;;;5.02;72.40;101580.75;4971134;28;20046;-53
2021/01/13 05:50:47;;;;;;;16.20;2.45;;;;;;;4.91;74.31;101576.09;4969103;28;20550;-54
2021/01/13 05:53:14;;;;;;;7.88;1.38;;;;;;;4.79;75.26;101595.50;4971633;28;20069;-57
2021/01/13 05:55:52;;;;;;;12.50;1.95;;;;;;;4.64;75.46;101579.41;4971254;28;20408;-57
2021/01/13 05:58:24;;;;;;;16.65;1.73;;;;;;;4.57;76.19;101591.69;4971930;28;20522;-56
2021/01/13 06:00:54;;;;;;;14.82;1.90;;;;;;;4.49;76.83;101588.19;4971722;28;20122;-58
2021/01/13 06:03:24;;;;;;;11.40;1.80;;;;;;;4.44;77.19;101577.00;4972755;28;20049;-54
2021/01/13 06:05:54;;;;;;;12.23;1.90;;;;;;;4.41;77.61;101577.50;4975338;28;20086;-58
2021/01/13 06:08:25;;;;;;;16.67;2.13;;;;;;;4.44;77.80;101584.47;4975217;28;20411;-50
2021/01/13 06:11:00;;;;;;;12.73;2.27;;;;;;;4.40;79.06;101588.78;4974559;28;20065;-58
2021/01/13 06:13:30;;;;;;;15.50;2.20;;;;;;;4.37;79.09;101584.59;4975242;28;20082;-54
2021/01/13 06:16:00;;;;;;;15.13;1.73;;;;;;;4.37;79.66;101586.53;4971123;28;20050;-54
2021/01/13 06:18:27;;;;;;;14.85;2.35;;;;;;;4.34;80.25;101582.31;4975102;28;20049;-52
2021/01/13 06:20:57;;;;;;;11.90;1.73;;;;;;;4.32;80.03;101572.59;4974780;28;20101;-55
2021/01/13 06:23:27;;;;;;;18.13;2.40;;;;;;;4.32;80.65;101573.44;4974388;28;20518;-50
2021/01/13 06:25:56;;;;;;;16.05;2.08;;;;;;;4.31;81.03;101577.25;4974661;28;20043;-54
2021/01/13 06:28:31;;;;;;;17.17;1.90;;;;;;;4.31;80.88;101585.56;4974679;28;20074;-52
2021/01/13 06:31:06;;;;;;;10.68;2.05;;;;;;;4.31;81.32;101582.78;4974173;28;20121;-52
2021/01/13 06:33:38;;;;;;;11.05;1.40;;;;;;;4.31;81.41;101570.91;4974729;28;20058;-55
2021/01/13 06:36:29;;;;;;;13.52;1.67;;;;;;;4.27;81.56;101573.28;4974400;28;20055;-53
2021/01/13 06:38:57;;;;;;;9.25;1.42;;;;;;;4.22;81.70;101575.94;4973981;28;20143;-53
2021/01/13 06:41:25;;;;;;;11.52;1.70;;;;;;;4.21;81.57;101568.72;4974366;28;20487;-53
2021/01/13 06:44:00;;;;;;;14.65;2.00;;;;;;;4.22;81.93;101569.56;4973992;28;20110;-51
2021/01/13 06:46:28;;;;;;;18.27;3.20;;;;;;;4.21;82.13;101565.13;4974037;28;20047;-49
2021/01/13 06:48:56;;;;;;;16.67;2.05;;;;;;;4.18;82.25;101566.47;4974440;28;20081;-52
2021/01/13 06:51:24;;;;;;;17.70;2.30;;;;;;;4.18;82.25;101565.63;4973437;28;20080;-54
2021/01/13 06:53:51;;;;;;;14.88;1.90;;;;;;;4.17;82.14;101566.69;4974651;28;20118;-52
2021/01/13 06:56:19;;;;;;;16.33;2.20;;;;;;;4.15;82.28;101565.03;4973742;28;20053;-55
2021/01/13 06:58:57;;;;;;;15.93;2.03;;;;;;;4.22;82.34;101572.31;4973840;28;20094;-51
2021/01/13 07:01:24;;;;;;;14.27;1.73;;;;;;;4.20;81.94;101564.28;4973239;28;20415;-53
2021/01/13 07:03:59;;;;;;;10.95;1.40;;;;;;;4.22;81.88;101566.81;4970712;28;20058;-53
2021/01/13 07:06:26;;;;;;;13.48;1.65;;;;;;;4.21;81.55;101549.38;4973329;28;20043;-51
2021/01/13 07:08:53;;;;;;;14.02;2.08;;;;;;;4.20;81.74;101558.75;4973929;28;20444;-52
2021/01/13 07:11:21;;;;;;;10.75;1.65;;;;;;;4.21;81.47;101557.66;4973256;28;20050;-54
2021/01/13 07:13:50;;;;;;;18.98;2.10;;;;;;;4.22;81.09;101548.31;4972609;28;20047;-56
2021/01/13 07:16:25;;;;;;;12.68;1.90;;;;;;;4.22;80.80;101553.81;4973353;28;20074;-51
2021/01/13 07:18:53;;;;;;;15.18;1.50;;;;;;;4.24;80.44;101545.31;4972385;28;20053;-57
2021/01/13 07:21:20;;;;;;;19.33;2.20;;;;;;;4.25;80.18;101544.22;4973539;28;20043;-52
2021/01/13 07:23:47;;;;;;;16.55;1.75;;;;;;;4.27;80.13;101544.81;4959280;28;20070;-53
2021/01/13 07:26:14;;;;;;;14.35;1.83;;;;;;;4.29;80.22;101546.28;4972809;28;20046;-55
2021/01/13 07:28:41;;;;;;;16.23;2.30;;;;;;;4.30;79.73;101550.72;4973371;28;20043;-58
2021/01/13 07:31:08;;;;;;;13.63;1.88;;;;;;;4.33;79.77;101547.47;4973282;28;20106;-55
2021/01/13 07:33:42;;;;;;;17.77;2.03;;;;;;;4.35;79.42;101550.84;4972442;28;20055;-55
2021/01/13 07:36:13;;;;;;;10.50;1.63;;;;;;;4.38;79.56;101542.06;4971268;28;20137;-54
2021/01/13 07:38:44;;;;;;;18.20;2.25;;;;;;;4.40;79.30;101550.94;4972775;28;20093;-54
2021/01/13 07:41:39;;;;;;;14.30;1.70;;;;;;;4.43;79.03;101552.38;4953283;29;20058;-57
2021/01/13 07:44:26;;;;;;;15.02;1.80;;;;;;;4.44;79.37;101552.13;4971516;28;20133;-56
2021/01/13 07:47:02;;;;;;;13.57;1.65;;;;;;;4.46;79.08;101557.44;4972099;28;20471;-60
2021/01/13 07:49:47;;;;;;;15.77;2.42;;;;;;;4.44;78.99;101554.06;4970673;28;20082;-53
2021/01/13 07:52:17;;;;;;;14.07;2.05;;;;;;;4.41;79.23;101552.63;4972714;28;20495;-57
2021/01/13 07:54:48;;;;;;;15.27;2.00;;;;;;;4.40;78.68;101552.84;4971933;28;20102;-56
2021/01/13 07:57:23;;;;;;;14.93;1.88;;;;;;;4.42;78.74;101545.16;4973055;28;20046;-57
2021/01/13 08:00:05;;;;;;;18.10;2.10;;;;;;;4.42;78.58;101551.53;4971723;28;20072;-57
2021/01/13 08:03:27;;;;;;;13.07;1.70;;;;;;;4.43;78.30;101552.38;4972226;28;20058;-54
2021/01/13 08:06:29;;;;;;;15.10;1.80;;;;;;;4.44;78.39;101560.44;4964488;28;20069;-57
2021/01/13 08:09:15;;;;;;;14.90;1.85;;;;;;;4.45;78.46;101556.59;4971930;28;20154;-57
2021/01/13 08:12:09;;;;;;;19.05;1.80;;;;;;;4.50;78.14;101562.25;4972985;28;20142;-57
2021/01/13 08:14:53;;;;;;;12.38;1.73;;;;;;;4.58;77.99;101560.19;4972309;28;20066;-58
2021/01/13 08:17:37;;;;;;;14.68;1.65;;;;;;;4.63;78.08;101547.31;4953375;29;20051;-60
2021/01/13 08:20:42;;;;;;;15.90;2.22;;;;;;;4.71;77.97;101551.63;4969560;28;20046;-56
2021/01/13 08:23:21;;;;;;;14.60;1.80;;;;;;;4.74;77.92;101556.69;4971797;28;20049;-57
2021/01/13 08:25:54;;;;;;;19.75;2.20;;;;;;;4.74;77.51;101556.69;4971638;28;20165;-56
2021/01/13 08:28:23;;;;;;;11.95;1.77;;;;;;;4.74;77.64;101559.44;4972686;28;20043;-59
2021/01/13 08:30:51;;;;;;;12.95;1.30;;;;;;;4.75;77.50;101550.06;4972104;28;20151;-59
2021/01/13 08:33:20;;;;;;;11.18;1.38;;;;;;;4.75;77.21;101548.16;4972356;28;20507;-57
2021/01/13 08:35:49;;;;;;;13.48;1.92;;;;;;;4.79;76.95;101548.50;4972247;28;20089;-60
2021/01/13 08:38:17;;;;;;;8.90;1.25;;;;;;;4.82;76.75;101556.28;4971806;28;20061;-57
2021/01/13 08:40:45;;;;;;;11.23;1.60;;;;;;;4.87;76.30;101547.25;4972088;28;20095;-58
2021/01/13 08:43:13;;;;;;;12.90;2.00;;;;;;;4.92;76.01;101552.91;4953222;29;20179;-58
2021/01/13 08:45:43;;;;;;;8.75;1.42;;;;;;;5.00;75.76;101547.81;4971730;28;20415;-58
2021/01/13 08:48:12;;;;;;;13.10;1.45;;;;;;;5.08;75.74;101547.44;4972360;28;20393;-56
2021/01/13 08:50:41;;;;;;;11.73;1.75;;;;;;;5.27;75.96;101548.06;4971554;28;20094;-56
2021/01/13 08:53:21;;;;;;;10.52;1.35;;;;;;;5.47;75.10;101534.63;4972324;28;20081;-59
2021/01/13 08:55:53;;;;;;;12.13;1.50;;;;;;;5.83;74.69;101552.69;4971831;28;20504;-58
2021/01/13 08:58:28;;;;;;;;;;;;;;;6.24;72.66;101547.84;4972143;28;20078;-56
2021/01/13 09:01:01;;;;;;;12.00;1.52;;;;;;;6.93;72.80;101545.50;4971988;28;19929;-59
2021/01/13 09:03:35;;;;;;;12.13;1.73;;;;;;;7.33;70.91;101545.16;4972230;28;20495;-57
2021/01/13 09:06:18;;;;;;;15.55;1.65;;;;;;;7.68;69.83;101539.13;4971488;28;20554;-60
2021/01/13 09:08:47;;;;;;;15.10;1.63;;;;;;;8.33;69.39;101537.16;4970911;28;20415;-57
2021/01/13 09:11:30;;;;;;;12.13;1.83;;;;;;;8.87;66.77;101540.53;4971740;28;20082;-58
2021/01/13 09:14:16;;;;;;;8.68;2.00;;;;;;;8.63;65.82;101535.41;4970958;28;20054;-55
2021/01/13 09:16:48;;;;;;;15.25;2.03;;;;;;;8.22;67.51;101539.00;4971654;28;20047;-55
2021/01/13 09:19:36;;;;;;;13.70;1.85;;;;;;;7.86;67.99;101546.22;4971212;28;20110;-53
2021/01/13 09:22:04;;;;;;;11.57;1.90;;;;;;;7.90;68.28;101539.03;4971305;28;20118;-53
2021/01/13 09:24:36;;;;;;;10.38;1.38;;;;;;;8.61;67.25;101543.19;4972151;28;20047;-56
2021/01/13 09:27:06;;;;;;;9.77;2.00;;;;;;;9.27;65.79;101546.25;4971133;28;20506;-59
2021/01/13 09:29:47;;;;;;;13.45;1.95;;;;;;;9.71;63.05;101554.16;4971797;28;20062;-62
2021/01/13 09:32:16;;;;;;;11.30;1.98;;;;;;;9.61;63.44;101549.41;4971710;28;20118;-64
2021/01/13 09:34:44;;;;;;;7.93;1.10;;;;;;;9.42;63.88;101558.53;4971433;28;20439;-63
2021/01/13 09:37:12;;;;;;;12.15;2.03;;;;;;;9.39;63.36;101553.56;4973102;28;20035;-62
2021/01/13 09:39:54;;;;;;;7.90;1.30;;;;;;;9.33;63.18;101547.97;4975200;28;20054;-62
2021/01/13 09:42:23;;;;;;;9.30;1.60;;;;;;;8.91;63.68;101553.66;4974981;28;20145;-57
2021/01/13 09:44:59;;;;;;;15.63;1.63;;;;;;;8.51;64.20;101547.84;4975722;28;20142;-59
2021/01/13 09:47:27;;;;;;;9.38;1.52;;;;;;;8.13;65.07;101541.44;4974876;28;20054;-58
2021/01/13 09:49:57;;;;;;;11.23;1.77;;;;;;;7.76;65.51;101533.09;4975363;28;20105;-58
2021/01/13 09:52:24;;;;;;;13.10;1.65;;;;;;;7.53;66.64;101533.41;4974820;28;20043;-57
2021/01/13 09:54:53;;;;;;;11.90;1.98;;;;;;;7.73;66.55;101536.38;4974777;28;20065;-55
2021/01/13 09:57:20;;;;;;;8.10;1.27;;;;;;;8.19;65.91;101536.78;4974883;28;20049;-57
2021/01/13 09:59:59;;;;;;;7.15;1.40;;;;;;;8.54;65.14;101542.59;4975377;28;20065;-60
2021/01/13 10:02:27;;;;;;;9.65;1.23;;;;;;;8.58;64.87;101546.53;4974754;28;20070;-58
2021/01/13 10:04:54;;;;;;;9.45;1.55;;;;;;;8.56;64.64;101542.34;4975172;28;20113;-59
2021/01/13 10:07:24;;;;;;;12.45;1.98;;;;;;;8.33;65.39;101545.50;4974977;28;20054;-57
2021/01/13 10:09:51;;;;;;;12.07;2.00;;;;;;;8.12;65.79;101541.72;4974629;28;20042;-53
2021/01/13 10:12:18;;;;;;;11.15;1.50;;;;;;;7.95;65.72;101536.31;4974734;28;20487;-55
2021/01/13 10:14:52;;;;;;;9.82;1.63;;;;;;;7.82;66.33;101539.50;4974613;28;20500;-55
2021/01/13 10:17:26;;;;;;;12.40;1.65;;;;;;;7.62;66.34;101542.94;4974517;28;20751;-57
2021/01/13 10:19:53;;;;;;;14.13;2.10;;;;;;;7.49;66.94;101527.53;4974702;28;20055;-57
2021/01/13 10:22:23;;;;;;;15.13;2.08;;;;;;;7.40;67.68;101533.81;4973927;28;20467;-57
2021/01/13 10:24:51;;;;;;;13.13;1.90;;;;;;;7.33;68.02;101549.88;4971811;28;20043;-59
2021/01/13 10:27:18;;;;;;;16.63;2.08;;;;;;;7.40;68.34;101539.38;4974677;28;20121;-55
2021/01/13 10:29:46;;;;;;;12.07;2.10;;;;;;;7.43;67.95;101542.47;4973831;28;20057;-57
2021/01/13 10:32:13;;;;;;;13.32;2.20;;;;;;;7.38;68.01;101548.00;4974320;28;20145;-58
2021/01/13 10:34:42;;;;;;;14.00;1.95;;;;;;;7.24;68.50;101549.47;4970794;28;20440;-52
2021/01/13 10:37:09;;;;;;;14.70;2.25;;;;;;;7.14;68.73;101543.81;4974223;28;20055;-56
2021/01/13 10:39:37;;;;;;;15.63;2.28;;;;;;;7.15;69.13;101543.56;4974000;28;20074;-57
2021/01/13 10:42:05;;;;;;;17.00;3.00;;;;;;;7.46;68.99;101543.88;4974564;28;20137;-54
2021/01/13 10:44:33;;;;;;;15.48;2.55;;;;;;;7.99;67.51;101547.72;4964723;28;20416;-55
2021/01/13 10:47:02;;;;;;;12.02;2.00;;;;;;;8.14;66.93;101545.06;4974659;28;20089;-57
2021/01/13 10:49:32;;;;;;;10.85;2.33;;;;;;;8.01;67.21;101545.50;4973390;28;20051;-55
2021/01/13 10:52:01;;;;;;;8.60;2.03;;;;;;;7.89;66.97;101548.47;4973676;28;20061;-57
2021/01/13 10:54:29;;;;;;;10.48;1.65;;;;;;;8.15;66.40;101530.91;4973943;28;20459;-57
2021/01/13 10:57:02;;;;;;;10.02;1.80;;;;;;;8.60;65.56;101538.72;4973635;28;20050;-55
2021/01/13 10:59:29;;;;;;;;;;;;;;;9.06;64.15;101536.16;4974304;28;20057;-57
2021/01/13 11:02:01;;;;;;;9.45;1.50;;;;;;;9.86;63.46;101526.31;4974149;28;19961;-57
2021/01/13 11:04:31;;;;;;;7.13;1.23;;;;;;;10.52;60.93;101531.03;4973335;28;20050;-56
2021/01/13 11:07:01;;;;;;;11.05;1.70;;;;;;;10.45;60.20;101527.69;4974081;28;20049;-58
2021/01/13 11:09:32;;;;;;;9.48;1.67;;;;;;;10.10;60.80;101537.75;4973814;28;20049;-59
2021/01/13 11:11:59;;;;;;;15.32;2.00;;;;;;;10.65;60.17;101536.00;4973467;28;20059;-53
2021/01/13 11:14:34;;;;;;;7.47;1.55;;;;;;;11.47;58.49;101526.13;4973947;28;20376;-57
2021/01/13 11:17:03;;;;;;;11.18;1.40;;;;;;;11.38;57.23;101519.50;4963558;28;20047;-54
2021/01/13 11:19:31;;;;;;;8.82;1.77;;;;;;;10.70;58.42;101524.81;4973034;28;20055;-62
2021/01/13 11:21:59;;;;;;;9.02;1.60;;;;;;;9.99;60.04;101534.09;4973681;28;20050;-60
2021/01/13 11:24:29;;;;;;;9.95;1.60;;;;;;;9.35;61.25;101555.22;4973388;28;20196;-55
2021/01/13 11:26:59;;;;;;;8.70;1.23;;;;;;;8.74;62.65;101549.38;4973082;28;20054;-52
2021/01/13 11:29:30;;;;;;;10.88;1.38;;;;;;;8.29;64.40;101548.78;4973541;28;20077;-58
2021/01/13 11:31:58;;;;;;;8.65;1.73;;;;;;;7.91;65.51;101543.50;4972633;28;20558;-52
2021/01/13 11:34:26;;;;;;;8.90;1.73;;;;;;;7.53;67.22;101539.81;4971465;28;20078;-54
2021/01/13 11:37:18;;;;;;;10.98;1.70;;;;;;;7.15;68.55;101538.00;4972771;28;20059;-51
2021/01/13 11:39:49;;;;;;;10.70;1.50;;;;;;;6.90;69.76;101544.09;4972818;28;20047;-52
2021/01/13 11:43:06;;;;;;;6.28;1.30;;;;;;;6.62;71.01;101543.41;4972275;28;20113;-52
2021/01/13 11:45:38;;;;;;;14.57;2.03;;;;;;;6.36;72.40;101539.47;4973240;28;20565;-54
2021/01/13 11:48:07;;;;;;;10.50;1.60;;;;;;;6.25;73.13;101532.06;4962670;28;20141;-49
2021/01/13 11:50:36;;;;;;;15.05;2.22;;;;;;;6.18;73.90;101537.81;4972753;28;20055;-51
2021/01/13 11:53:05;;;;;;;14.65;2.03;;;;;;;6.12;74.12;101520.25;4972867;28;20047;-48